createdAt,value
2023-04-12T00:01:29.396Z,6.63
2023-04-12T00:04:06.213Z,6.60
2023-04-12T00:06:42.267Z,6.65
2023-04-12T00:09:16.989Z,6.64
2023-04-12T00:11:49.715Z,6.67
2023-04-12T00:14:22.766Z,6.68
2023-04-12T00:16:55.155Z,6.70
2023-04-12T00:19:28.001Z,6.64
2023-04-12T00:22:00.788Z,6.65
2023-04-12T00:24:33.524Z,6.63
2023-04-12T00:27:06.297Z,6.65
2023-04-12T00:29:38.920Z,6.64
2023-04-12T00:32:11.455Z,6.64
2023-04-12T00:34:44.076Z,6.62
2023-04-12T00:37:16.690Z,6.59
2023-04-12T00:39:49.445Z,6.57
2023-04-12T00:42:22.536Z,6.46
2023-04-12T00:44:55.463Z,6.51
2023-04-12T00:47:30.717Z,6.55
2023-04-12T00:50:04.955Z,6.57
2023-04-12T00:52:38.355Z,6.56
2023-04-12T00:55:13.446Z,6.55
2023-04-12T00:57:45.934Z,6.54
2023-04-12T01:00:19.814Z,6.49
2023-04-12T01:02:52.632Z,6.44
2023-04-12T01:05:27.547Z,6.43
2023-04-12T01:08:11.226Z,6.37
2023-04-12T01:10:51.664Z,6.41
2023-04-12T01:13:31.748Z,6.41
2023-04-12T01:16:15.434Z,6.40
2023-04-12T01:18:52.614Z,6.42
2023-04-12T01:21:30.469Z,6.42
2023-04-12T01:24:22.358Z,6.44
2023-04-12T01:27:01.124Z,6.45
2023-04-12T01:29:34.381Z,6.48
2023-04-12T01:32:07.891Z,6.48
2023-04-12T01:34:42.021Z,6.47
2023-04-12T01:37:16.641Z,6.49
2023-04-12T01:39:50.582Z,6.51
2023-04-12T01:42:24.833Z,6.53
2023-04-12T01:44:55.494Z,6.55
2023-04-12T01:47:28.645Z,6.47
2023-04-12T01:50:08.864Z,6.47
2023-04-12T01:52:48.107Z,6.47
2023-04-12T01:55:23.263Z,6.46
2023-04-12T01:57:57.358Z,6.44
2023-04-12T02:00:31.941Z,6.47
2023-04-12T02:03:05.969Z,6.45
2023-04-12T02:05:40.642Z,6.43
2023-04-12T02:08:13.736Z,6.44
2023-04-12T02:10:46.698Z,6.47
2023-04-12T02:13:21.828Z,6.48
2023-04-12T02:15:55.673Z,6.51
2023-04-12T02:18:28.450Z,6.49
2023-04-12T02:20:59.993Z,6.47
2023-04-12T02:23:33.965Z,6.41
2023-04-12T02:26:06.827Z,6.39
2023-04-12T02:28:39.713Z,6.39
2023-04-12T02:31:14.224Z,6.36
2023-04-12T02:33:47.462Z,6.37
2023-04-12T02:36:20.613Z,6.38
2023-04-12T02:38:54.913Z,6.36
2023-04-12T02:41:28.375Z,6.33
2023-04-12T02:44:00.933Z,6.34
2023-04-12T02:46:36.508Z,6.29
2023-04-12T02:49:09.413Z,6.30
2023-04-12T02:51:45.222Z,6.26
2023-04-12T02:54:17.690Z,6.28
2023-04-12T02:56:59.056Z,6.23
2023-04-12T02:59:39.597Z,6.23
2023-04-12T03:02:25.596Z,6.20
2023-04-12T03:05:03.932Z,6.22
2023-04-12T03:07:47.911Z,6.23
2023-04-12T03:10:22.922Z,6.25
2023-04-12T03:13:08.865Z,6.24
2023-04-12T03:15:44.515Z,6.27
2023-04-12T03:18:17.956Z,6.25
2023-04-12T03:20:54.121Z,6.22
2023-04-12T03:23:24.876Z,6.21
2023-04-12T03:26:10.270Z,6.17
2023-04-12T03:28:43.271Z,6.17
2023-04-12T03:31:21.002Z,6.19
2023-04-12T03:33:53.886Z,6.20
2023-04-12T03:36:29.900Z,6.15
2023-04-12T03:39:12.712Z,6.13
2023-04-12T03:41:45.934Z,6.12
2023-04-12T03:44:18.530Z,6.09
2023-04-12T03:46:52.098Z,6.05
2023-04-12T03:49:25.083Z,6.06
2023-04-12T03:51:58.872Z,6.03
2023-04-12T03:54:34.020Z,6.07
2023-04-12T03:57:10.509Z,6.01
2023-04-12T03:59:49.977Z,6.05
2023-04-12T04:02:24.698Z,6.07
2023-04-12T04:04:58.998Z,6.07
2023-04-12T04:07:33.423Z,6.11
2023-04-12T04:10:07.542Z,6.09
2023-04-12T04:12:41.741Z,6.11
2023-04-12T04:15:18.452Z,6.12
2023-04-12T04:17:51.552Z,6.13
2023-04-12T04:20:26.614Z,6.09
2023-04-12T04:23:01.931Z,6.09
2023-04-12T04:25:34.769Z,6.10
2023-04-12T04:28:10.208Z,6.09
2023-04-12T04:30:46.482Z,6.10
2023-04-12T04:33:21.502Z,6.11
2023-04-12T04:35:57.364Z,6.12
2023-04-12T04:38:34.266Z,6.11
2023-04-12T04:41:14.197Z,6.15
2023-04-12T04:43:55.771Z,6.15
2023-04-12T04:46:30.940Z,6.19
2023-04-12T04:49:04.549Z,6.21
2023-04-12T04:51:35.264Z,6.24
2023-04-12T04:54:10.860Z,6.24
2023-04-12T04:56:46.530Z,6.27
2023-04-12T04:59:21.519Z,6.28
2023-04-12T05:01:54.920Z,6.31
2023-04-12T05:04:27.637Z,6.35
2023-04-12T05:07:01.025Z,6.36
2023-04-12T05:09:34.215Z,6.38
2023-04-12T05:12:09.431Z,6.39
2023-04-12T05:14:47.948Z,6.37
2023-04-12T05:17:24.621Z,6.39
2023-04-12T05:19:57.547Z,6.37
2023-04-12T05:22:31.890Z,6.38
2023-04-12T05:25:04.991Z,6.40
2023-04-12T05:27:39.602Z,6.41
2023-04-12T05:30:14.360Z,6.41
2023-04-12T05:32:47.600Z,6.43
2023-04-12T05:35:19.528Z,6.45
2023-04-12T05:37:52.939Z,6.41
2023-04-12T05:40:26.142Z,6.49
2023-04-12T05:42:59.011Z,6.53
2023-04-12T05:45:33.178Z,6.52
2023-04-12T05:48:06.673Z,6.51
2023-04-12T05:50:39.964Z,6.53
2023-04-12T05:53:15.019Z,6.56
2023-04-12T05:55:47.553Z,6.56
2023-04-12T05:58:21.873Z,6.57
2023-04-12T06:00:54.637Z,6.56
2023-04-12T06:03:27.363Z,6.52
2023-04-12T06:06:04.673Z,6.56
2023-04-12T06:08:38.445Z,6.56
2023-04-12T06:11:12.668Z,6.53
2023-04-12T06:13:47.667Z,6.52
2023-04-12T06:16:20.507Z,6.55
2023-04-12T06:18:53.393Z,6.54
2023-04-12T06:21:26.837Z,6.49
2023-04-12T06:23:57.876Z,6.50
2023-04-12T06:26:38.917Z,6.47
2023-04-12T06:29:12.395Z,6.52
2023-04-12T06:31:45.288Z,6.51
2023-04-12T06:34:18.463Z,6.56
2023-04-12T06:36:50.127Z,6.58
2023-04-12T06:39:22.852Z,6.55
2023-04-12T06:41:57.907Z,6.61
2023-04-12T06:44:30.618Z,6.69
2023-04-12T06:47:03.377Z,6.72
2023-04-12T06:49:36.004Z,6.76
2023-04-12T06:52:08.777Z,6.80
2023-04-12T06:54:42.838Z,6.84
2023-04-12T06:57:15.274Z,6.88
2023-04-12T06:59:47.886Z,6.94
2023-04-12T07:02:21.023Z,7.00
2023-04-12T07:04:58.681Z,7.06
2023-04-12T07:07:31.286Z,7.09
2023-04-12T07:10:05.471Z,7.12
2023-04-12T07:12:38.552Z,7.11
2023-04-12T07:15:12.850Z,7.09
2023-04-12T07:17:45.293Z,7.10
2023-04-12T07:20:18.235Z,7.15
2023-04-12T07:22:51.082Z,7.11
2023-04-12T07:25:23.980Z,7.09
2023-04-12T07:27:56.734Z,7.12
2023-04-12T07:30:29.373Z,7.14
2023-04-12T07:33:18.527Z,7.20
2023-04-12T07:35:52.938Z,7.24
2023-04-12T07:38:25.532Z,7.31
2023-04-12T07:40:58.481Z,7.36
2023-04-12T07:43:31.101Z,7.35
2023-04-12T07:46:09.160Z,7.34
2023-04-12T07:48:41.842Z,7.27
2023-04-12T07:51:14.769Z,7.30
2023-04-12T07:53:48.699Z,7.35
2023-04-12T07:56:21.484Z,7.39
2023-04-12T07:58:54.373Z,7.44
2023-04-12T08:01:27.390Z,7.48
2023-04-12T08:04:01.194Z,7.44
2023-04-12T08:06:34.626Z,7.38
2023-04-12T08:09:07.637Z,7.36
2023-04-12T08:11:40.983Z,7.35
2023-04-12T08:14:13.841Z,7.38
2023-04-12T08:16:46.448Z,7.37
2023-04-12T08:19:19.889Z,7.40
2023-04-12T08:21:53.143Z,7.39
2023-04-12T08:24:26.146Z,7.41
2023-04-12T08:26:59.038Z,7.43
2023-04-12T08:29:31.750Z,7.51
2023-04-12T08:32:05.744Z,7.57
2023-04-12T08:34:39.105Z,7.55
2023-04-12T08:37:12.302Z,7.58
2023-04-12T08:39:45.111Z,7.63
2023-04-12T08:42:19.013Z,7.67
2023-04-12T08:44:53.652Z,7.74
2023-04-12T08:47:26.626Z,7.75
2023-04-12T08:49:59.616Z,7.76
2023-04-12T08:52:35.796Z,7.81
2023-04-12T08:55:10.250Z,7.86
2023-04-12T08:57:44.274Z,7.89
2023-04-12T09:00:19.827Z,7.92
2023-04-12T09:02:52.787Z,8.00
2023-04-12T09:05:32.484Z,8.06
2023-04-12T09:08:06.069Z,8.12
2023-04-12T09:10:38.738Z,8.22
2023-04-12T09:13:11.920Z,8.26
2023-04-12T09:15:53.335Z,8.37
2023-04-12T09:18:27.998Z,8.50
2023-04-12T09:21:13.421Z,8.66
2023-04-12T09:23:45.944Z,8.80
2023-04-12T09:26:32.036Z,9.03
2023-04-12T09:29:04.791Z,9.27
2023-04-12T09:31:37.399Z,9.50
2023-04-12T09:34:13.116Z,9.72
2023-04-12T09:36:46.874Z,9.88
2023-04-12T09:39:20.069Z,10.02
2023-04-12T09:42:17.915Z,10.07
2023-04-12T09:44:58.866Z,10.27
2023-04-12T09:47:42.550Z,10.28
2023-04-12T09:50:23.823Z,10.36
2023-04-12T09:52:57.067Z,10.47
2023-04-12T09:55:32.644Z,10.60
2023-04-12T09:58:07.601Z,10.66
2023-04-12T10:00:40.807Z,10.62
2023-04-12T10:03:14.036Z,10.65
2023-04-12T10:05:47.257Z,10.58
2023-04-12T10:08:21.279Z,10.56
2023-04-12T10:10:55.597Z,10.43
2023-04-12T10:13:31.083Z,10.36
2023-04-12T10:16:05.633Z,10.26
2023-04-12T10:18:40.378Z,10.32
2023-04-12T10:21:13.548Z,10.34
2023-04-12T10:23:47.756Z,10.27
2023-04-12T10:26:20.994Z,10.15
2023-04-12T10:29:27.514Z,9.95
2023-04-12T10:32:20.021Z,10.03
2023-04-12T10:34:56.636Z,10.08
2023-04-12T10:38:03.461Z,10.08
2023-04-12T10:40:37.895Z,10.01
2023-04-12T10:43:28.592Z,10.26
2023-04-12T10:46:05.636Z,10.30
2023-04-12T10:48:40.067Z,10.28
2023-04-12T10:51:26.029Z,10.19
2023-04-12T10:54:37.287Z,10.17
2023-04-12T10:57:31.758Z,10.05
2023-04-12T11:00:05.599Z,10.07
2023-04-12T11:02:58.628Z,9.92
2023-04-12T11:05:31.584Z,9.92
2023-04-12T11:08:13.889Z,9.95
2023-04-12T11:11:02.239Z,9.94
2023-04-12T11:13:40.761Z,9.95
2023-04-12T11:16:14.394Z,9.87
2023-04-12T11:18:50.484Z,9.78
2023-04-12T11:21:23.384Z,9.76
2023-04-12T11:23:56.800Z,9.78
2023-04-12T11:26:33.572Z,9.62
2023-04-12T11:29:17.024Z,9.72
2023-04-12T11:31:49.635Z,9.80
2023-04-12T11:34:22.677Z,9.81
2023-04-12T11:36:56.612Z,9.92
2023-04-12T11:39:32.003Z,9.99
2023-04-12T11:42:09.062Z,10.02
2023-04-12T11:44:56.305Z,10.14
2023-04-12T11:47:32.249Z,10.29
2023-04-12T11:50:05.161Z,10.38
2023-04-12T11:52:38.022Z,10.45
2023-04-12T11:55:12.227Z,10.49
2023-04-12T11:57:44.808Z,10.49
2023-04-12T12:00:19.267Z,10.55
2023-04-12T12:03:06.702Z,10.49
2023-04-12T12:05:43.104Z,10.45
2023-04-12T12:08:15.752Z,10.35
2023-04-12T12:11:06.572Z,10.42
2023-04-12T12:13:51.437Z,10.32
2023-04-12T12:16:28.584Z,10.38
2023-04-12T12:19:06.248Z,10.42
2023-04-12T12:21:38.918Z,10.34
2023-04-12T12:24:16.137Z,10.35
2023-04-12T12:26:50.980Z,10.32
2023-04-12T12:29:25.571Z,10.22
2023-04-12T12:32:02.316Z,10.16
2023-04-12T12:34:37.759Z,10.24
2023-04-12T12:37:14.860Z,10.08
2023-04-12T12:40:07.680Z,10.12
2023-04-12T12:42:48.032Z,10.17
2023-04-12T12:45:22.364Z,10.16
2023-04-12T12:47:57.064Z,10.15
2023-04-12T12:50:31.985Z,10.09
2023-04-12T12:53:06.609Z,9.97
2023-04-12T12:55:40.686Z,9.92
2023-04-12T12:58:13.240Z,9.85
2023-04-12T13:00:46.278Z,9.83
2023-04-12T13:03:19.642Z,9.89
2023-04-12T13:05:51.948Z,9.93
2023-04-12T13:08:24.503Z,9.95
2023-04-12T13:10:57.117Z,10.02
2023-04-12T13:13:30.223Z,10.09
2023-04-12T13:16:03.178Z,10.13
2023-04-12T13:18:36.363Z,10.09
2023-04-12T13:21:10.115Z,10.05
2023-04-12T13:23:40.820Z,10.02
2023-04-12T13:26:13.446Z,9.99
2023-04-12T13:28:46.118Z,10.06
2023-04-12T13:31:18.732Z,10.07
2023-04-12T13:33:51.633Z,9.95
2023-04-12T13:36:25.739Z,9.98
2023-04-12T13:38:58.754Z,10.02
2023-04-12T13:41:36.771Z,9.89
2023-04-12T13:44:18.170Z,9.89
2023-04-12T13:46:55.960Z,9.94
2023-04-12T13:49:29.331Z,10.00
2023-04-12T13:52:03.972Z,10.11
2023-04-12T13:54:37.553Z,10.21
2023-04-12T13:57:15.229Z,10.38
2023-04-12T13:59:48.537Z,10.54
2023-04-12T14:02:21.404Z,10.64
2023-04-12T14:04:57.694Z,10.71
2023-04-12T14:07:30.411Z,10.76
2023-04-12T14:10:03.851Z,10.82
2023-04-12T14:12:36.550Z,10.91
2023-04-12T14:15:12.212Z,11.04
2023-04-12T14:17:45.097Z,11.07
2023-04-12T14:20:19.524Z,11.20
2023-04-12T14:22:52.621Z,11.26
2023-04-12T14:25:25.601Z,11.12
2023-04-12T14:27:58.649Z,11.10
2023-04-12T14:30:31.692Z,11.20
2023-04-12T14:33:04.268Z,11.26
2023-04-12T14:35:40.137Z,11.33
2023-04-12T14:38:13.421Z,11.36
2023-04-12T14:40:44.617Z,11.35
2023-04-12T14:43:17.593Z,11.35
2023-04-12T14:45:54.023Z,11.43
2023-04-12T14:48:27.881Z,11.43
2023-04-12T14:51:01.802Z,11.36
2023-04-12T14:53:35.053Z,11.37
2023-04-12T14:56:20.412Z,11.33
2023-04-12T14:58:55.793Z,11.32
2023-04-12T15:01:29.304Z,11.18
2023-04-12T15:04:04.313Z,11.15
2023-04-12T15:06:42.817Z,11.02
2023-04-12T15:09:17.849Z,10.87
2023-04-12T15:11:56.708Z,10.88
2023-04-12T15:14:29.452Z,10.94
2023-04-12T15:17:02.646Z,11.05
2023-04-12T15:19:36.272Z,11.13
2023-04-12T15:22:07.703Z,10.95
2023-04-12T15:24:40.206Z,10.78
2023-04-12T15:27:13.479Z,10.78
2023-04-12T15:29:46.136Z,10.68
2023-04-12T15:32:19.009Z,10.53
2023-04-12T15:34:52.474Z,10.53
2023-04-12T15:37:26.485Z,10.43
2023-04-12T15:39:59.213Z,10.41
2023-04-12T15:42:32.621Z,10.40
2023-04-12T15:45:05.993Z,10.29
2023-04-12T15:47:39.362Z,10.10
2023-04-12T15:50:13.152Z,10.14
2023-04-12T15:52:46.062Z,10.15
2023-04-12T15:55:20.555Z,9.94
2023-04-12T15:57:54.639Z,9.94
2023-04-12T16:00:29.249Z,9.83
2023-04-12T16:03:02.240Z,9.68
2023-04-12T16:05:35.255Z,9.71
2023-04-12T16:08:09.674Z,9.73
2023-04-12T16:10:42.273Z,9.72
2023-04-12T16:13:15.120Z,9.72
2023-04-12T16:15:49.656Z,9.85
2023-04-12T16:18:23.288Z,9.91
2023-04-12T16:20:55.876Z,9.88
2023-04-12T16:23:33.051Z,9.87
2023-04-12T16:26:06.183Z,9.83
2023-04-12T16:28:40.061Z,9.74
2023-04-12T16:31:16.178Z,9.66
2023-04-12T16:33:51.893Z,9.61
2023-04-12T16:36:25.900Z,9.72
2023-04-12T16:39:02.259Z,9.70
2023-04-12T16:41:35.089Z,9.56
2023-04-12T16:44:08.301Z,9.57
2023-04-12T16:46:40.663Z,9.58
2023-04-12T16:49:13.657Z,9.53
2023-04-12T16:51:47.996Z,9.57
2023-04-12T16:54:23.157Z,9.53
2023-04-12T16:56:56.837Z,9.48
2023-04-12T16:59:36.409Z,9.45
2023-04-12T17:02:08.926Z,9.43
2023-04-12T17:04:43.393Z,9.28
2023-04-12T17:07:16.892Z,9.22
2023-04-12T17:09:57.901Z,9.20
2023-04-12T17:12:31.204Z,9.08
2023-04-12T17:15:05.865Z,9.04
2023-04-12T17:17:38.615Z,9.02
2023-04-12T17:20:13.290Z,8.92
2023-04-12T17:22:46.401Z,8.90
2023-04-12T17:25:21.164Z,8.86
2023-04-12T17:27:55.169Z,8.76
2023-04-12T17:30:27.891Z,8.73
2023-04-12T17:33:02.015Z,8.57
2023-04-12T17:35:35.302Z,8.50
2023-04-12T17:38:08.497Z,8.43
2023-04-12T17:40:42.802Z,8.39
2023-04-12T17:43:15.390Z,8.36
2023-04-12T17:45:48.209Z,8.29
2023-04-12T17:48:20.758Z,8.11
2023-04-12T17:51:00.518Z,7.94
2023-04-12T17:53:33.573Z,7.79
2023-04-12T17:56:07.800Z,7.71
2023-04-12T17:58:41.007Z,7.61
2023-04-12T18:01:15.290Z,7.49
2023-04-12T18:03:49.542Z,7.38
2023-04-12T18:06:27.396Z,7.18
2023-04-12T18:09:00.110Z,7.11
2023-04-12T18:11:34.866Z,7.07
2023-04-12T18:14:07.661Z,6.98
2023-04-12T18:16:41.425Z,6.83
2023-04-12T18:19:19.336Z,6.71
2023-04-12T18:21:52.332Z,6.63
2023-04-12T18:24:24.984Z,6.57
2023-04-12T18:26:59.638Z,6.50
2023-04-12T18:29:33.216Z,6.42
2023-04-12T18:32:15.977Z,6.34
2023-04-12T18:34:49.213Z,6.21
2023-04-12T18:37:22.265Z,6.15
2023-04-12T18:39:55.673Z,6.12
2023-04-12T18:42:32.978Z,6.09
2023-04-12T18:45:06.723Z,6.05
2023-04-12T18:47:39.385Z,6.01
2023-04-12T18:50:14.557Z,5.96
2023-04-12T18:52:47.598Z,5.93
2023-04-12T18:55:21.092Z,5.89
2023-04-12T18:57:54.283Z,5.85
2023-04-12T19:00:27.067Z,5.87
2023-04-12T19:03:00.114Z,5.87
2023-04-12T19:05:33.263Z,5.90
2023-04-12T19:08:07.225Z,5.94
2023-04-12T19:10:40.130Z,5.91
2023-04-12T19:13:13.466Z,5.87
2023-04-12T19:15:49.131Z,5.89
2023-04-12T19:18:22.319Z,5.82
2023-04-12T19:20:55.062Z,5.81
2023-04-12T19:23:27.991Z,5.78
2023-04-12T19:26:00.918Z,5.80
2023-04-12T19:28:33.824Z,5.75
2023-04-12T19:31:10.800Z,5.69
2023-04-12T19:33:44.403Z,5.67
2023-04-12T19:36:16.891Z,5.72
2023-04-12T19:38:50.840Z,5.80
2023-04-12T19:41:24.026Z,5.81
2023-04-12T19:43:57.421Z,5.77
2023-04-12T19:46:29.241Z,5.71
2023-04-12T19:49:04.174Z,5.57
2023-04-12T19:51:37.258Z,5.58
2023-04-12T19:54:11.342Z,5.55
2023-04-12T19:56:41.944Z,5.52
2023-04-12T19:59:15.987Z,5.48
2023-04-12T20:01:50.875Z,5.43
2023-04-12T20:04:26.642Z,5.44
2023-04-12T20:07:00.201Z,5.43
2023-04-12T20:09:33.195Z,5.43
2023-04-12T20:12:07.045Z,5.44
2023-04-12T20:14:40.973Z,5.41
2023-04-12T20:17:12.373Z,5.32
2023-04-12T20:19:45.582Z,5.18
2023-04-12T20:22:18.427Z,5.19
2023-04-12T20:24:53.707Z,5.17
2023-04-12T20:27:26.156Z,5.12
2023-04-12T20:29:59.688Z,5.06
2023-04-12T20:32:30.545Z,5.00
2023-04-12T20:35:04.237Z,4.96
2023-04-12T20:37:38.975Z,4.99
2023-04-12T20:40:13.692Z,4.95
2023-04-12T20:42:47.512Z,4.93
2023-04-12T20:45:22.204Z,4.91
2023-04-12T20:47:55.399Z,4.87
2023-04-12T20:50:30.987Z,4.87
2023-04-12T20:53:03.735Z,4.88
2023-04-12T20:55:37.432Z,4.86
2023-04-12T20:58:13.104Z,4.85
2023-04-12T21:00:48.803Z,4.80
2023-04-12T21:03:22.564Z,4.75
2023-04-12T21:05:55.469Z,4.69
2023-04-12T21:08:28.501Z,4.70
2023-04-12T21:11:02.063Z,4.67
2023-04-12T21:13:34.801Z,4.69
2023-04-12T21:16:08.460Z,4.68
2023-04-12T21:18:41.909Z,4.66
2023-04-12T21:21:14.442Z,4.63
2023-04-12T21:23:46.743Z,4.61
2023-04-12T21:26:19.267Z,4.58
2023-04-12T21:28:53.116Z,4.55
2023-04-12T21:31:25.853Z,4.52
2023-04-12T21:34:00.555Z,4.49
2023-04-12T21:36:33.407Z,4.46
2023-04-12T21:39:08.484Z,4.47
2023-04-12T21:41:40.913Z,4.45
2023-04-12T21:44:13.885Z,4.44
2023-04-12T21:46:47.105Z,4.40
2023-04-12T21:49:19.438Z,4.36
2023-04-12T21:51:52.766Z,4.26
2023-04-12T21:54:24.862Z,4.22
2023-04-12T21:56:57.918Z,4.20
2023-04-12T21:59:35.028Z,4.23
2023-04-12T22:02:07.646Z,4.22
2023-04-12T22:04:40.515Z,4.25
2023-04-12T22:07:17.314Z,4.30
2023-04-12T22:09:50.153Z,4.29
2023-04-12T22:12:25.854Z,4.23
2023-04-12T22:14:59.134Z,4.22
2023-04-12T22:17:31.936Z,4.31
2023-04-12T22:20:04.405Z,4.32
2023-04-12T22:22:37.765Z,4.32
2023-04-12T22:25:15.881Z,4.32
2023-04-12T22:27:50.146Z,4.32
2023-04-12T22:30:23.504Z,4.29
2023-04-12T22:32:55.884Z,4.43
2023-04-12T22:35:28.011Z,4.53
2023-04-12T22:38:01.096Z,4.61
2023-04-12T22:40:33.181Z,4.62
2023-04-12T22:43:05.541Z,4.63
2023-04-12T22:45:38.523Z,4.66
2023-04-12T22:48:15.396Z,4.64
2023-04-12T22:50:48.201Z,4.56
2023-04-12T22:53:22.810Z,4.47
2023-04-12T22:55:58.363Z,4.40
2023-04-12T22:58:31.902Z,4.34
2023-04-12T23:01:06.022Z,4.34
2023-04-12T23:03:42.092Z,4.35
2023-04-12T23:06:15.029Z,4.38
2023-04-12T23:08:50.311Z,4.43
2023-04-12T23:11:22.781Z,4.43
2023-04-12T23:13:55.797Z,4.44
2023-04-12T23:16:28.899Z,4.41
2023-04-12T23:19:01.976Z,4.40
2023-04-12T23:21:35.314Z,4.34
2023-04-12T23:24:09.204Z,4.26
2023-04-12T23:26:41.883Z,4.22
2023-04-12T23:29:14.803Z,4.16
2023-04-12T23:31:47.844Z,4.12
2023-04-12T23:34:22.611Z,4.12
2023-04-12T23:37:00.573Z,4.10
2023-04-12T23:39:33.359Z,4.07
2023-04-12T23:42:05.875Z,4.00
2023-04-12T23:44:38.903Z,3.98
2023-04-12T23:47:11.559Z,3.95
2023-04-12T23:49:44.599Z,3.90
2023-04-12T23:52:20.278Z,3.95
2023-04-12T23:54:52.984Z,4.04
2023-04-12T23:57:25.726Z,4.26
2023-04-12T23:59:59.255Z,4.24
